createdAt,value
2022-08-20T00:01:08.853Z,101152.50
2022-08-20T00:03:41.312Z,101154.41
2022-08-20T00:06:23.491Z,101160.06
2022-08-20T00:08:51.027Z,101157.34
2022-08-20T00:11:21.366Z,101148.63
2022-08-20T00:13:53.524Z,101143.84
2022-08-20T00:16:23.215Z,101156.78
2022-08-20T00:18:50.111Z,101143.00
2022-08-20T00:21:18.878Z,101146.38
2022-08-20T00:23:48.360Z,101147.84
2022-08-20T00:26:15.992Z,101145.78
2022-08-20T00:28:42.451Z,101149.31
2022-08-20T00:31:11.812Z,101140.34
2022-08-20T00:33:38.940Z,101142.47
2022-08-20T00:36:09.366Z,101124.47
2022-08-20T00:38:37.843Z,101141.44
2022-08-20T00:41:06.052Z,101140.59
2022-08-20T00:43:32.559Z,101149.34
2022-08-20T00:46:02.364Z,101145.59
2022-08-20T00:48:32.041Z,101136.22
2022-08-20T00:51:30.804Z,101142.50
2022-08-20T00:54:05.725Z,101137.69
2022-08-20T00:56:35.985Z,101142.47
2022-08-20T00:59:05.564Z,101136.59
2022-08-20T01:01:34.505Z,101151.44
2022-08-20T01:04:20.961Z,101137.69
2022-08-20T01:06:48.572Z,101140.59
2022-08-20T01:09:15.091Z,101133.91
2022-08-20T01:11:42.484Z,101148.94
2022-08-20T01:14:23.966Z,101139.31
2022-08-20T01:16:54.982Z,101138.28
2022-08-20T01:19:29.498Z,101138.06
2022-08-20T01:21:58.081Z,101148.47
2022-08-20T01:24:35.726Z,101132.16
2022-08-20T01:27:05.644Z,101155.16
2022-08-20T01:29:39.246Z,101145.13
2022-08-20T01:32:06.554Z,101164.09
2022-08-20T01:34:33.561Z,101153.59
2022-08-20T01:37:00.504Z,101156.34
2022-08-20T01:39:31.007Z,101137.91
2022-08-20T01:42:07.890Z,101162.63
2022-08-20T01:44:37.411Z,101161.97
2022-08-20T01:47:20.273Z,101156.75
2022-08-20T01:49:51.773Z,101168.69
2022-08-20T01:52:42.802Z,101169.75
2022-08-20T01:55:10.201Z,101173.03
2022-08-20T01:57:37.826Z,101169.28
2022-08-20T02:00:19.086Z,101162.63
2022-08-20T02:02:46.752Z,101162.44
2022-08-20T02:05:13.343Z,101167.88
2022-08-20T02:07:39.782Z,101171.22
2022-08-20T02:10:09.158Z,101166.44
2022-08-20T02:12:35.760Z,101164.50
2022-08-20T02:15:02.449Z,101168.31
2022-08-20T02:17:29.330Z,101157.03
2022-08-20T02:20:00.408Z,101162.25
2022-08-20T02:22:44.261Z,101172.69
2022-08-20T02:25:22.860Z,101147.19
2022-08-20T02:27:51.787Z,101166.84
2022-08-20T02:30:28.078Z,101162.63
2022-08-20T02:32:56.344Z,101172.66
2022-08-20T02:35:23.640Z,101174.72
2022-08-20T02:37:50.844Z,101179.31
2022-08-20T02:40:19.340Z,101169.09
2022-08-20T02:42:58.462Z,101160.06
2022-08-20T02:45:24.916Z,101178.25
2022-08-20T02:47:56.622Z,101167.16
2022-08-20T02:50:25.432Z,101179.69
2022-08-20T02:52:52.420Z,101173.22
2022-08-20T02:55:26.986Z,101172.78
2022-08-20T02:57:58.567Z,101150.16
2022-08-20T03:00:26.378Z,101161.94
2022-08-20T03:02:52.888Z,101162.13
2022-08-20T03:05:19.451Z,101141.00
2022-08-20T03:07:48.309Z,101164.44
2022-08-20T03:10:16.052Z,101140.34
2022-08-20T03:12:42.702Z,101169.59
2022-08-20T03:15:17.561Z,101132.50
2022-08-20T03:17:45.297Z,101167.91
2022-08-20T03:20:13.109Z,101166.03
2022-08-20T03:22:40.090Z,101154.38
2022-08-20T03:25:07.264Z,101152.50
2022-08-20T03:27:36.326Z,101162.50
2022-08-20T03:30:06.149Z,101153.72
2022-08-20T03:32:32.590Z,101153.06
2022-08-20T03:34:59.031Z,101163.69
2022-08-20T03:37:25.517Z,101154.72
2022-08-20T03:39:52.114Z,101168.31
2022-08-20T03:42:18.619Z,101177.28
2022-08-20T03:44:45.085Z,101169.16
2022-08-20T03:47:11.896Z,101157.84
2022-08-20T03:49:38.369Z,101177.09
2022-08-20T03:52:06.095Z,101177.09
2022-08-20T03:54:32.568Z,101183.16
2022-08-20T03:57:01.119Z,101186.69
2022-08-20T03:59:27.587Z,101187.53
2022-08-20T04:01:54.682Z,101190.25
2022-08-20T04:04:22.080Z,101182.91
2022-08-20T04:06:48.577Z,101182.44
2022-08-20T04:09:15.891Z,101210.91
2022-08-20T04:11:43.261Z,101215.50
2022-08-20T04:14:11.522Z,101218.00
2022-08-20T04:16:43.100Z,101216.97
2022-08-20T04:19:09.696Z,101212.59
2022-08-20T04:21:36.511Z,101220.72
2022-08-20T04:24:04.919Z,101213.84
2022-08-20T04:26:32.233Z,101220.94
2022-08-20T04:28:58.850Z,101216.97
2022-08-20T04:31:25.718Z,101216.56
2022-08-20T04:33:52.626Z,101227.47
2022-08-20T04:36:19.426Z,101227.25
2022-08-20T04:38:49.542Z,101223.31
2022-08-20T04:41:23.236Z,101222.69
2022-08-20T04:43:54.423Z,101223.75
2022-08-20T04:46:23.862Z,101223.34
2022-08-20T04:48:50.764Z,101225.84
2022-08-20T04:51:18.744Z,101227.34
2022-08-20T04:53:51.683Z,101228.81
2022-08-20T04:56:23.758Z,101237.41
2022-08-20T04:58:52.978Z,101240.34
2022-08-20T05:01:20.345Z,101235.34
2022-08-20T05:03:49.839Z,101236.44
2022-08-20T05:06:18.125Z,101236.66
2022-08-20T05:08:45.229Z,101230.81
2022-08-20T05:11:33.052Z,101227.53
2022-08-20T05:13:58.767Z,101232.78
2022-08-20T05:16:25.309Z,101220.06
2022-08-20T05:18:52.630Z,101227.41
2022-08-20T05:21:20.378Z,101231.81
2022-08-20T05:23:46.862Z,101216.34
2022-08-20T05:26:15.145Z,101232.50
2022-08-20T05:28:49.959Z,101229.59
2022-08-20T05:31:23.680Z,101225.00
2022-08-20T05:33:59.335Z,101237.59
2022-08-20T05:36:25.719Z,101236.78
2022-08-20T05:38:53.823Z,101243.03
2022-08-20T05:41:28.436Z,101240.56
2022-08-20T05:43:57.240Z,101232.81
2022-08-20T05:46:23.804Z,101228.03
2022-08-20T05:48:50.237Z,101239.56
2022-08-20T05:51:16.688Z,101226.16
2022-08-20T05:53:43.853Z,101238.69
2022-08-20T05:56:11.371Z,101244.13
2022-08-20T05:58:37.991Z,101242.69
2022-08-20T06:01:04.925Z,101243.75
2022-08-20T06:03:50.184Z,101248.16
2022-08-20T06:06:36.763Z,101250.63
2022-08-20T06:09:03.625Z,101245.84
2022-08-20T06:11:32.693Z,101229.31
2022-08-20T06:14:03.837Z,101244.38
2022-08-20T06:16:30.462Z,101246.88
2022-08-20T06:18:58.685Z,101257.31
2022-08-20T06:21:25.659Z,101248.97
2022-08-20T06:23:57.178Z,101248.75
2022-08-20T06:26:30.088Z,101241.84
2022-08-20T06:29:00.698Z,101237.88
2022-08-20T06:31:27.458Z,101242.06
2022-08-20T06:36:20.387Z,101238.31
2022-08-20T06:38:46.829Z,101239.53
2022-08-20T06:41:13.916Z,101213.41
2022-08-20T06:43:40.594Z,101246.44
2022-08-20T06:46:07.266Z,101241.84
2022-08-20T06:48:34.338Z,101239.97
2022-08-20T06:51:01.409Z,101239.09
2022-08-20T06:53:28.927Z,101243.47
2022-08-20T06:55:58.812Z,101251.19
2022-08-20T06:58:37.663Z,101257.47
2022-08-20T07:01:10.384Z,101254.91
2022-08-20T07:03:55.461Z,101256.78
2022-08-20T07:06:24.925Z,101255.72
2022-08-20T07:08:51.439Z,101235.00
2022-08-20T07:11:17.931Z,101255.06
2022-08-20T07:13:45.330Z,101263.22
2022-08-20T07:16:12.188Z,101241.66
2022-08-20T07:18:38.703Z,101255.69
2022-08-20T07:21:05.366Z,101255.28
2022-08-20T07:23:31.945Z,101284.13
2022-08-20T07:25:58.876Z,101280.09
2022-08-20T07:28:32.010Z,101284.50
2022-08-20T07:31:17.900Z,101280.31
2022-08-20T07:33:46.914Z,101291.56
2022-08-20T07:36:17.813Z,101281.56
2022-08-20T07:38:47.011Z,101276.81
2022-08-20T07:41:14.925Z,101277.59
2022-08-20T07:43:45.134Z,101282.56
2022-08-20T07:46:13.923Z,101282.13
2022-08-20T07:48:46.110Z,101283.69
2022-08-20T07:51:17.779Z,101294.09
2022-08-20T07:53:46.261Z,101253.94
2022-08-20T07:56:15.510Z,101299.00
2022-08-20T07:58:50.294Z,101305.69
2022-08-20T08:01:25.534Z,101303.06
2022-08-20T08:03:52.867Z,101310.97
2022-08-20T08:06:29.503Z,101313.88
2022-08-20T08:09:01.846Z,101309.94
2022-08-20T08:11:28.345Z,101307.22
2022-08-20T08:13:54.838Z,101315.28
2022-08-20T08:16:21.823Z,101318.78
2022-08-20T08:18:56.629Z,101318.47
2022-08-20T08:21:23.630Z,101323.69
2022-08-20T08:23:50.218Z,101326.06
2022-08-20T08:26:19.298Z,101325.59
2022-08-20T08:28:46.892Z,101321.81
2022-08-20T08:31:14.715Z,101330.56
2022-08-20T08:33:41.540Z,101330.47
2022-08-20T08:36:11.529Z,101312.88
2022-08-20T08:38:40.473Z,101331.78
2022-08-20T08:41:20.306Z,101324.56
2022-08-20T08:43:47.946Z,101328.47
2022-08-20T08:46:22.480Z,101319.38
2022-08-20T08:48:53.502Z,101323.31
2022-08-20T08:51:30.344Z,101319.97
2022-08-20T08:53:57.543Z,101329.91
2022-08-20T08:56:27.376Z,101324.81
2022-08-20T08:58:55.600Z,101323.66
2022-08-20T09:01:54.541Z,101334.81
2022-08-20T09:04:12.552Z,101314.69
2022-08-20T09:06:40.472Z,101330.91
2022-08-20T09:09:21.476Z,101335.69
2022-08-20T09:11:52.972Z,101341.31
2022-08-20T09:14:20.563Z,101350.13
2022-08-20T09:16:52.948Z,101352.41
2022-08-20T09:19:20.755Z,101348.75
2022-08-20T09:21:47.338Z,101346.03
2022-08-20T09:24:13.817Z,101353.34
2022-08-20T09:26:40.588Z,101344.53
2022-08-20T09:29:07.284Z,101357.41
2022-08-20T09:31:33.855Z,101334.78
2022-08-20T09:34:00.329Z,101338.28
2022-08-20T09:36:31.874Z,101348.97
2022-08-20T09:39:00.492Z,101355.75
2022-08-20T09:41:28.991Z,101338.38
2022-08-20T09:43:55.482Z,101345.31
2022-08-20T09:46:27.317Z,101338.97
2022-08-20T09:48:54.493Z,101338.22
2022-08-20T09:51:21.408Z,101339.25
2022-08-20T09:53:49.042Z,101318.38
2022-08-20T09:56:15.835Z,101349.72
2022-08-20T09:58:52.047Z,101350.63
2022-08-20T10:01:21.183Z,101320.44
2022-08-20T10:03:49.125Z,101357.22
2022-08-20T10:06:17.772Z,101355.47
2022-08-20T10:08:44.505Z,101314.41
2022-08-20T10:11:11.361Z,101356.22
2022-08-20T10:13:37.918Z,101350.47
2022-08-20T10:16:05.317Z,101342.78
2022-08-20T10:18:31.739Z,101343.22
2022-08-20T10:20:58.431Z,101315.53
2022-08-20T10:23:24.890Z,101347.13
2022-08-20T10:25:51.594Z,101339.66
2022-08-20T10:28:18.035Z,101357.03
2022-08-20T10:30:45.209Z,101364.19
2022-08-20T10:33:11.637Z,101359.22
2022-08-20T10:35:38.053Z,101355.63
2022-08-20T10:38:04.522Z,101368.38
2022-08-20T10:40:31.043Z,101349.28
2022-08-20T10:42:57.480Z,101357.28
2022-08-20T10:45:25.715Z,101356.00
2022-08-20T10:47:52.416Z,101366.38
2022-08-20T10:50:20.248Z,101375.31
2022-08-20T10:52:47.126Z,101380.06
2022-08-20T10:55:13.983Z,101377.56
2022-08-20T10:57:41.411Z,101379.59
2022-08-20T11:00:12.328Z,101384.84
2022-08-20T11:02:38.922Z,101381.13
2022-08-20T11:05:06.771Z,101386.00
2022-08-20T11:07:54.828Z,101377.81
2022-08-20T11:10:26.940Z,101378.59
2022-08-20T11:12:53.533Z,101368.69
2022-08-20T11:15:20.232Z,101377.97
2022-08-20T11:17:46.774Z,101363.84
2022-08-20T11:20:15.703Z,101387.53
2022-08-20T11:22:42.126Z,101376.66
2022-08-20T11:25:09.365Z,101392.63
2022-08-20T11:27:39.605Z,101384.09
2022-08-20T11:30:10.501Z,101372.16
2022-08-20T11:32:37.144Z,101379.31
2022-08-20T11:35:24.522Z,101388.38
2022-08-20T11:37:52.386Z,101364.19
2022-08-20T11:40:19.001Z,101383.00
2022-08-20T11:43:11.067Z,101381.31
2022-08-20T11:45:37.390Z,101388.56
2022-08-20T11:48:04.395Z,101373.63
2022-08-20T11:50:30.863Z,101368.38
2022-08-20T11:52:57.320Z,101378.03
2022-08-20T11:55:28.475Z,101380.72
2022-08-20T11:58:00.010Z,101378.03
2022-08-20T12:00:32.859Z,101377.34
2022-08-20T12:03:08.633Z,101376.66
2022-08-20T12:05:36.269Z,101355.84
2022-08-20T12:08:03.739Z,101375.81
2022-08-20T12:10:30.381Z,101376.16
2022-08-20T12:12:57.161Z,101381.66
2022-08-20T12:15:26.641Z,101376.22
2022-08-20T12:17:54.148Z,101379.97
2022-08-20T12:20:20.773Z,101383.31
2022-08-20T12:22:47.304Z,101379.97
2022-08-20T12:25:13.863Z,101385.47
2022-08-20T12:27:41.463Z,101392.28
2022-08-20T12:30:14.415Z,101396.56
2022-08-20T12:32:42.268Z,101403.13
2022-08-20T12:35:10.508Z,101399.56
2022-08-20T12:37:37.373Z,101400.72
2022-08-20T12:40:07.389Z,101393.81
2022-08-20T12:42:34.031Z,101374.63
2022-08-20T12:45:01.136Z,101395.03
2022-08-20T12:47:30.903Z,101399.47
2022-08-20T12:50:01.087Z,101387.13
2022-08-20T12:52:29.721Z,101391.09
2022-08-20T12:54:57.325Z,101399.63
2022-08-20T12:57:25.624Z,101395.72
2022-08-20T12:59:52.305Z,101395.72
2022-08-20T13:02:19.148Z,101392.13
2022-08-20T13:04:45.736Z,101405.44
2022-08-20T13:07:13.496Z,101403.28
2022-08-20T13:09:41.219Z,101397.78
2022-08-20T13:12:08.589Z,101401.81
2022-08-20T13:14:36.177Z,101392.38
2022-08-20T13:17:03.457Z,101400.78
2022-08-20T13:19:31.256Z,101406.22
2022-08-20T13:21:57.806Z,101399.31
2022-08-20T13:24:24.295Z,101410.47
2022-08-20T13:26:50.861Z,101399.72
2022-08-20T13:29:18.912Z,101399.47
2022-08-20T13:31:45.482Z,101400.50
2022-08-20T13:34:12.503Z,101408.97
2022-08-20T13:36:39.110Z,101394.75
2022-08-20T13:39:06.883Z,101395.53
2022-08-20T13:41:33.806Z,101404.47
2022-08-20T13:44:00.249Z,101400.63
2022-08-20T13:46:26.690Z,101393.97
2022-08-20T13:48:53.094Z,101392.00
2022-08-20T13:51:19.544Z,101390.16
2022-08-20T13:53:48.192Z,101383.75
2022-08-20T13:56:14.602Z,101398.59
2022-08-20T13:58:41.052Z,101394.31
2022-08-20T14:01:07.611Z,101405.66
2022-08-20T14:03:35.276Z,101394.56
2022-08-20T14:06:03.439Z,101407.56
2022-08-20T14:08:30.202Z,101384.66
2022-08-20T14:10:56.934Z,101399.75
2022-08-20T14:13:25.628Z,101381.56
2022-08-20T14:15:52.453Z,101380.56
2022-08-20T14:18:19.851Z,101390.13
2022-08-20T14:20:46.369Z,101375.97
2022-08-20T14:23:13.370Z,101375.28
2022-08-20T14:25:40.023Z,101378.31
2022-08-20T14:28:18.053Z,101389.84
2022-08-20T14:30:46.428Z,101387.41
2022-08-20T14:33:20.094Z,101399.88
2022-08-20T14:35:46.537Z,101399.53
2022-08-20T14:38:12.967Z,101387.78
2022-08-20T14:40:39.581Z,101390.63
2022-08-20T14:43:06.150Z,101387.47
2022-08-20T14:45:32.591Z,101391.09
2022-08-20T14:47:59.806Z,101399.19
2022-08-20T14:50:28.046Z,101394.44
2022-08-20T14:52:55.861Z,101394.66
2022-08-20T14:55:25.694Z,101395.50
2022-08-20T14:57:52.067Z,101406.25
2022-08-20T15:00:28.363Z,101399.06
2022-08-20T15:02:55.278Z,101363.59
2022-08-20T15:05:22.140Z,101395.13
2022-08-20T15:07:53.960Z,101401.22
2022-08-20T15:10:28.009Z,101395.63
2022-08-20T15:12:55.052Z,101389.09
2022-08-20T15:15:21.968Z,101402.81
2022-08-20T15:17:55.064Z,101399.75
2022-08-20T15:20:25.318Z,101388.25
2022-08-20T15:22:52.010Z,101392.66
2022-08-20T15:25:22.106Z,101397.47
2022-08-20T15:27:49.084Z,101403.31
2022-08-20T15:30:19.749Z,101405.91
2022-08-20T15:32:50.234Z,101399.94
2022-08-20T15:35:19.386Z,101403.53
2022-08-20T15:37:49.038Z,101403.06
2022-08-20T15:40:23.492Z,101406.97
2022-08-20T15:42:53.763Z,101398.28
2022-08-20T15:45:21.956Z,101410.44
2022-08-20T15:48:00.088Z,101415.78
2022-08-20T15:51:03.164Z,101413.25
2022-08-20T15:53:50.351Z,101408.13
2022-08-20T15:56:52.098Z,101416.84
2022-08-20T15:59:26.021Z,101409.47
2022-08-20T16:02:29.292Z,101417.84
2022-08-20T16:05:32.742Z,101428.31
2022-08-20T16:08:20.499Z,101424.28
2022-08-20T16:11:20.051Z,101422.38
2022-08-20T16:14:13.997Z,101421.41
2022-08-20T16:17:01.187Z,101415.91
2022-08-20T16:19:36.253Z,101428.53
2022-08-20T16:22:04.305Z,101425.56
2022-08-20T16:24:31.706Z,101415.31
2022-08-20T16:27:30.524Z,101431.28
2022-08-20T16:30:03.925Z,101424.38
2022-08-20T16:32:30.743Z,101431.31
2022-08-20T16:35:10.131Z,101435.81
2022-08-20T16:37:51.322Z,101436.03
2022-08-20T16:40:20.518Z,101438.66
2022-08-20T16:42:51.384Z,101440.22
2022-08-20T16:45:26.328Z,101444.84
2022-08-20T16:47:56.903Z,101444.47
2022-08-20T16:50:28.791Z,101441.97
2022-08-20T16:52:55.442Z,101440.97
2022-08-20T16:55:23.280Z,101447.63
2022-08-20T16:57:52.774Z,101447.03
2022-08-20T17:00:35.277Z,101432.84
2022-08-20T17:03:08.804Z,101430.44
2022-08-20T17:05:37.922Z,101451.28
2022-08-20T17:08:07.174Z,101448.72
2022-08-20T17:10:54.685Z,101448.19
2022-08-20T17:13:28.260Z,101441.84
2022-08-20T17:16:07.265Z,101434.06
2022-08-20T17:18:37.199Z,101447.94
2022-08-20T17:21:05.716Z,101452.75
2022-08-20T17:23:54.578Z,101427.47
2022-08-20T17:26:30.388Z,101459.19
2022-08-20T17:29:10.508Z,101461.81
2022-08-20T17:31:43.158Z,101452.50
2022-08-20T17:34:25.336Z,101458.19
2022-08-20T17:36:57.742Z,101451.53
2022-08-20T17:39:27.574Z,101456.38
2022-08-20T17:42:25.634Z,101449.59
2022-08-20T17:45:21.287Z,101455.06
2022-08-20T17:47:47.967Z,101451.53
2022-08-20T17:50:38.364Z,101455.75
2022-08-20T17:53:29.487Z,101459.25
2022-08-20T17:56:08.566Z,101459.94
2022-08-20T17:58:54.392Z,101472.06
2022-08-20T18:01:22.923Z,101460.03
2022-08-20T18:03:51.543Z,101456.84
2022-08-20T18:06:31.066Z,101456.81
2022-08-20T18:09:04.626Z,101447.06
2022-08-20T18:11:45.333Z,101447.00
2022-08-20T18:14:23.938Z,101446.22
2022-08-20T18:17:08.389Z,101453.00
2022-08-20T18:19:37.592Z,101451.38
2022-08-20T18:22:33.191Z,101451.16
2022-08-20T18:25:24.960Z,101463.50
2022-08-20T18:27:55.277Z,101462.47
2022-08-20T18:30:23.533Z,101464.75
2022-08-20T18:33:08.740Z,101459.66
2022-08-20T18:35:46.219Z,101468.63
2022-08-20T18:38:21.747Z,101471.31
2022-08-20T18:40:50.947Z,101467.47
2022-08-20T18:43:30.343Z,101472.84
2022-08-20T18:46:13.294Z,101479.03
2022-08-20T18:48:50.864Z,101483.53
2022-08-20T18:51:21.395Z,101484.50
2022-08-20T18:53:51.111Z,101485.00
2022-08-20T18:56:30.622Z,101483.44
2022-08-20T18:59:01.946Z,101488.56
2022-08-20T19:01:31.881Z,101481.97
2022-08-20T19:03:58.503Z,101487.75
2022-08-20T19:06:55.487Z,101488.66
2022-08-20T19:09:36.233Z,101490.16
2022-08-20T19:12:02.750Z,101490.63
2022-08-20T19:14:45.693Z,101489.44
2022-08-20T19:17:37.219Z,101486.47
2022-08-20T19:20:11.068Z,101486.69
2022-08-20T19:22:39.719Z,101492.94
2022-08-20T19:25:07.171Z,101492.94
2022-08-20T19:27:33.844Z,101491.69
2022-08-20T19:30:01.361Z,101489.38
2022-08-20T19:32:31.877Z,101491.28
2022-08-20T19:35:08.432Z,101494.44
2022-08-20T19:37:50.422Z,101486.94
2022-08-20T19:40:29.489Z,101489.41
2022-08-20T19:42:59.420Z,101485.59
2022-08-20T19:45:47.119Z,101496.31
2022-08-20T19:48:13.487Z,101496.44
2022-08-20T19:50:52.234Z,101497.53
2022-08-20T19:53:33.696Z,101497.38
2022-08-20T19:56:05.432Z,101501.66
2022-08-20T19:58:34.248Z,101502.22
2022-08-20T20:01:03.556Z,101472.75
2022-08-20T20:03:35.649Z,101506.84
2022-08-20T20:06:17.174Z,101504.50
2022-08-20T20:09:03.705Z,101500.81
2022-08-20T20:11:45.212Z,101511.00
2022-08-20T20:14:14.946Z,101500.72
2022-08-20T20:16:42.571Z,101500.56
2022-08-20T20:19:27.806Z,101509.13
2022-08-20T20:22:19.015Z,101513.38
2022-08-20T20:24:56.680Z,101517.09
2022-08-20T20:27:25.830Z,101501.94
2022-08-20T20:30:02.445Z,101505.13
2022-08-20T20:32:30.331Z,101500.09
2022-08-20T20:34:59.173Z,101495.03
2022-08-20T20:37:55.958Z,101491.97
2022-08-20T20:40:26.528Z,101489.13
2022-08-20T20:43:08.529Z,101492.47
2022-08-20T20:45:55.185Z,101502.28
2022-08-20T20:48:26.119Z,101496.53
2022-08-20T20:50:56.422Z,101500.72
2022-08-20T20:53:53.225Z,101492.78
2022-08-20T20:56:44.352Z,101496.00
2022-08-20T20:59:11.034Z,101495.97
2022-08-20T21:01:49.802Z,101492.97
2022-08-20T21:04:18.489Z,101496.09
2022-08-20T21:06:45.099Z,101483.97
2022-08-20T21:09:12.136Z,101480.91
2022-08-20T21:11:38.578Z,101477.19
2022-08-20T21:14:05.037Z,101473.31
2022-08-20T21:16:31.538Z,101482.38
2022-08-20T21:18:58.371Z,101483.91
2022-08-20T21:21:24.934Z,101485.91
2022-08-20T21:23:51.735Z,101455.72
2022-08-20T21:26:18.664Z,101475.44
2022-08-20T21:28:45.101Z,101481.84
2022-08-20T21:31:11.552Z,101486.69
2022-08-20T21:33:37.973Z,101484.16
2022-08-20T21:36:04.650Z,101480.41
2022-08-20T21:38:31.159Z,101476.69
2022-08-20T21:40:58.425Z,101481.06
2022-08-20T21:43:26.769Z,101483.25
2022-08-20T21:45:53.249Z,101492.47
2022-08-20T21:48:20.049Z,101486.56
2022-08-20T21:50:46.474Z,101481.47
2022-08-20T21:53:13.246Z,101487.53
2022-08-20T21:55:40.880Z,101500.47
2022-08-20T21:58:08.647Z,101494.56
2022-08-20T22:00:55.792Z,101485.81
2022-08-20T22:03:28.391Z,101490.28
2022-08-20T22:05:55.867Z,101491.28
2022-08-20T22:08:26.147Z,101466.25
2022-08-20T22:10:59.699Z,101487.25
2022-08-20T22:13:32.788Z,101478.38
2022-08-20T22:16:06.594Z,101479.91
2022-08-20T22:18:33.657Z,101488.31
2022-08-20T22:21:00.556Z,101485.06
2022-08-20T22:23:27.163Z,101490.78
2022-08-20T22:25:54.034Z,101490.09
2022-08-20T22:28:20.966Z,101458.03
2022-08-20T22:30:47.993Z,101476.56
2022-08-20T22:33:20.889Z,101478.56
2022-08-20T22:35:51.668Z,101479.91
2022-08-20T22:38:18.877Z,101446.28
2022-08-20T22:40:46.018Z,101471.75
2022-08-20T22:43:12.973Z,101469.38
2022-08-20T22:45:41.517Z,101468.03
2022-08-20T22:48:09.117Z,101472.72
2022-08-20T22:50:37.658Z,101472.47
2022-08-20T22:53:06.236Z,101465.19
2022-08-20T22:55:32.955Z,101479.00
2022-08-20T22:57:59.454Z,101470.13
2022-08-20T23:00:27.544Z,101472.28
2022-08-20T23:02:57.734Z,101470.44
2022-08-20T23:05:25.781Z,101470.63
2022-08-20T23:07:54.239Z,101455.22
2022-08-20T23:10:21.687Z,101447.47
2022-08-20T23:12:48.202Z,101454.00
2022-08-20T23:15:15.226Z,101454.00
2022-08-20T23:17:41.682Z,101457.69
2022-08-20T23:20:11.210Z,101451.78
2022-08-20T23:22:37.736Z,101455.59
2022-08-20T23:25:06.375Z,101451.38
2022-08-20T23:27:40.441Z,101450.88
2022-08-20T23:30:07.571Z,101448.63
2022-08-20T23:32:34.077Z,101425.84
2022-08-20T23:35:00.533Z,101454.44
2022-08-20T23:37:27.115Z,101444.84
2022-08-20T23:39:53.655Z,101441.25
2022-08-20T23:42:20.121Z,101438.78
2022-08-20T23:44:46.797Z,101440.81
2022-08-20T23:47:19.917Z,101436.28
2022-08-20T23:49:46.823Z,101437.41
2022-08-20T23:52:13.320Z,101439.84
2022-08-20T23:54:40.251Z,101445.78
2022-08-20T23:57:08.097Z,101435.47
2022-08-20T23:59:35.335Z,101378.44
